createdAt,value
2023-03-02T00:00:38.430Z,99966.63
2023-03-02T00:03:05.227Z,99957.16
2023-03-02T00:05:31.671Z,99940.94
2023-03-02T00:07:58.670Z,99920.44
2023-03-02T00:10:25.518Z,99915.28
2023-03-02T00:12:52.322Z,99917.03
2023-03-02T00:15:18.878Z,99925.53
2023-03-02T00:17:45.259Z,99930.56
2023-03-02T00:20:12.135Z,99920.31
2023-03-02T00:22:39.632Z,99882.69
2023-03-02T00:25:06.560Z,99871.56
2023-03-02T00:27:32.954Z,99877.50
2023-03-02T00:29:59.501Z,99862.06
2023-03-02T00:32:25.950Z,99836.44
2023-03-02T00:34:52.754Z,99830.47
2023-03-02T00:37:19.346Z,99834.72
2023-03-02T00:39:45.999Z,99830.44
2023-03-02T00:42:12.342Z,99836.38
2023-03-02T00:44:38.709Z,99836.34
2023-03-02T00:47:05.216Z,99851.69
2023-03-02T00:49:31.652Z,99846.56
2023-03-02T00:51:58.086Z,99837.09
2023-03-02T00:54:24.476Z,99810.53
2023-03-02T00:56:50.915Z,99789.22
2023-03-02T00:59:26.835Z,99779.81
2023-03-02T01:01:59.784Z,99752.44
2023-03-02T01:04:29.842Z,99737.09
2023-03-02T01:07:00.934Z,99759.28
2023-03-02T01:09:27.412Z,99778.09
2023-03-02T01:11:53.967Z,99772.06
2023-03-02T01:14:20.471Z,99736.97
2023-03-02T01:16:47.393Z,99717.34
2023-03-02T01:19:14.713Z,99714.75
2023-03-02T01:21:41.609Z,99728.44
2023-03-02T01:24:08.319Z,99736.16
2023-03-02T01:26:34.965Z,99720.72
2023-03-02T01:29:01.314Z,99717.31
2023-03-02T01:31:27.940Z,99725.03
2023-03-02T01:33:54.576Z,99727.56
2023-03-02T01:36:21.461Z,99712.19
2023-03-02T01:38:48.012Z,99714.75
2023-03-02T01:41:14.595Z,99699.34
2023-03-02T01:43:41.105Z,99691.63
2023-03-02T01:46:40.915Z,99678.75
2023-03-02T01:49:09.494Z,99642.84
2023-03-02T01:51:38.396Z,99589.00
2023-03-02T01:54:07.554Z,99565.97
2023-03-02T01:56:36.099Z,99553.13
2023-03-02T01:59:07.785Z,99557.44
2023-03-02T02:01:35.096Z,99564.28
2023-03-02T02:04:01.700Z,99569.41
2023-03-02T02:06:39.083Z,99572.84
2023-03-02T02:09:08.212Z,99548.88
2023-03-02T02:11:34.569Z,99540.31
2023-03-02T02:14:01.371Z,99529.22
2023-03-02T02:16:28.014Z,99506.97
2023-03-02T02:18:54.648Z,99494.16
2023-03-02T02:21:21.576Z,99465.09
2023-03-02T02:24:06.125Z,99429.16
2023-03-02T02:26:39.024Z,99421.47
2023-03-02T02:29:14.648Z,99418.91
2023-03-02T02:31:45.270Z,99408.63
2023-03-02T02:34:16.212Z,99412.88
2023-03-02T02:36:45.129Z,99399.19
2023-03-02T02:39:16.398Z,99383.78
2023-03-02T02:41:42.737Z,99382.94
2023-03-02T02:44:13.757Z,99371.78
2023-03-02T02:46:40.326Z,99362.41
2023-03-02T02:49:06.855Z,99346.13
2023-03-02T02:51:33.604Z,99340.13
2023-03-02T02:54:01.256Z,99327.28
2023-03-02T02:56:29.977Z,99323.00
2023-03-02T02:58:57.979Z,99305.03
2023-03-02T03:01:25.935Z,99290.50
2023-03-02T03:03:57.218Z,99268.22
2023-03-02T03:06:30.716Z,99112.50
2023-03-02T03:08:58.897Z,98843.88
2023-03-02T03:11:27.628Z,98533.31
2023-03-02T03:13:57.616Z,98178.25
2023-03-02T03:16:24.117Z,97807.81
2023-03-02T03:18:51.145Z,97456.13
2023-03-02T03:21:18.396Z,97129.84
2023-03-02T03:23:44.927Z,96922.16
2023-03-02T03:26:11.330Z,96699.56
2023-03-02T03:28:37.890Z,96488.31
2023-03-02T03:31:04.426Z,96266.50
2023-03-02T03:33:30.845Z,96058.06
2023-03-02T03:35:57.444Z,95850.09
2023-03-02T03:38:23.941Z,95666.09
2023-03-02T03:40:50.285Z,95462.47
2023-03-02T03:43:16.735Z,95295.44
2023-03-02T03:45:43.279Z,95121.81
2023-03-02T03:48:09.667Z,94962.94
2023-03-02T03:50:36.518Z,94795.53
2023-03-02T03:53:03.960Z,94659.53
2023-03-02T03:55:31.060Z,94538.72
2023-03-02T03:57:57.611Z,94442.88
2023-03-02T04:00:24.174Z,94347.00
2023-03-02T04:02:50.644Z,94246.41
2023-03-02T04:05:17.101Z,94178.75
2023-03-02T04:07:43.465Z,94125.69
2023-03-02T04:10:10.593Z,94053.75
2023-03-02T04:12:38.228Z,93877.50
2023-03-02T04:15:06.307Z,93668.41
2023-03-02T04:17:32.721Z,93376.84
2023-03-02T04:19:59.472Z,93475.97
2023-03-02T04:22:26.470Z,93441.97
2023-03-02T04:24:52.867Z,93524.72
2023-03-02T04:27:19.328Z,93464.44
2023-03-02T04:29:46.264Z,93403.84
2023-03-02T04:32:14.757Z,93341.00
2023-03-02T04:34:41.400Z,93288.06
2023-03-02T04:37:07.772Z,93204.38
2023-03-02T04:39:34.119Z,93142.13
2023-03-02T04:42:00.542Z,93099.78
2023-03-02T04:44:26.883Z,93037.72
2023-03-02T04:46:53.287Z,92864.25
2023-03-02T04:49:19.910Z,92797.19
2023-03-02T04:51:47.111Z,92729.91
2023-03-02T04:54:17.468Z,92706.03
2023-03-02T04:56:44.152Z,92705.09
2023-03-02T04:59:10.923Z,92698.69
2023-03-02T05:01:37.263Z,92620.22
2023-03-02T05:04:04.615Z,92498.34
2023-03-02T05:06:31.362Z,92393.78
2023-03-02T05:08:59.838Z,92386.63
2023-03-02T05:11:26.338Z,92403.09
2023-03-02T05:13:54.502Z,92439.75
2023-03-02T05:16:20.967Z,92438.78
2023-03-02T05:18:47.552Z,92404.78
2023-03-02T05:21:14.465Z,92388.56
2023-03-02T05:23:41.502Z,92391.50
2023-03-02T05:26:08.188Z,92407.19
2023-03-02T05:28:35.059Z,92388.22
2023-03-02T05:31:02.293Z,92399.91
2023-03-02T05:33:29.281Z,92405.47
2023-03-02T05:35:55.726Z,92422.84
2023-03-02T05:38:22.181Z,92441.97
2023-03-02T05:40:48.869Z,92462.84
2023-03-02T05:43:17.214Z,92492.63
2023-03-02T05:45:43.547Z,92519.59
2023-03-02T05:48:10.461Z,92542.44
2023-03-02T05:50:36.813Z,92543.66
2023-03-02T05:53:03.247Z,92538.19
2023-03-02T05:55:29.681Z,92533.06
2023-03-02T05:57:56.146Z,92539.78
2023-03-02T06:00:23.007Z,92509.44
2023-03-02T06:02:49.581Z,92499.59
2023-03-02T06:05:17.802Z,92521.47
2023-03-02T06:07:44.353Z,92503.59
2023-03-02T06:10:11.569Z,92507.59
2023-03-02T06:12:38.342Z,92484.75
2023-03-02T06:15:05.370Z,92484.75
2023-03-02T06:17:31.933Z,92500.84
2023-03-02T06:19:58.320Z,92476.06
2023-03-02T06:22:24.791Z,92477.31
2023-03-02T06:24:51.214Z,92480.84
2023-03-02T06:27:17.573Z,92504.31
2023-03-02T06:29:44.398Z,92512.81
2023-03-02T06:32:10.942Z,92504.41
2023-03-02T06:34:37.346Z,92515.22
2023-03-02T06:37:03.706Z,92544.78
2023-03-02T06:39:30.294Z,92565.22
2023-03-02T06:41:56.665Z,92553.09
2023-03-02T06:44:22.997Z,92554.69
2023-03-02T06:46:49.512Z,92552.13
2023-03-02T06:49:15.885Z,92541.34
2023-03-02T06:51:42.220Z,92532.66
2023-03-02T06:54:08.808Z,92495.03
2023-03-02T06:56:35.513Z,92470.41
2023-03-02T06:59:02.271Z,92461.34
2023-03-02T07:01:32.959Z,92458.44
2023-03-02T07:03:59.674Z,92439.75
2023-03-02T07:06:26.301Z,92442.31
2023-03-02T07:08:52.637Z,92445.69
2023-03-02T07:11:19.035Z,92437.25
2023-03-02T07:13:45.433Z,92432.75
2023-03-02T07:16:13.163Z,92412.88
2023-03-02T07:18:39.975Z,92395.75
2023-03-02T07:21:06.464Z,92409.56
2023-03-02T07:23:33.048Z,92416.94
2023-03-02T07:25:59.651Z,92447.19
2023-03-02T07:28:26.116Z,92467.28
2023-03-02T07:30:53.337Z,92453.56
2023-03-02T07:33:20.949Z,92461.88
2023-03-02T07:35:47.356Z,92476.94
2023-03-02T07:38:13.948Z,92482.09
2023-03-02T07:40:41.643Z,92474.25
2023-03-02T07:43:08.417Z,92479.63
2023-03-02T07:45:34.991Z,92501.03
2023-03-02T07:48:01.894Z,92557.50
2023-03-02T07:50:28.257Z,92573.19
2023-03-02T07:52:54.826Z,92603.34
2023-03-02T07:55:21.163Z,92633.66
2023-03-02T07:57:47.541Z,92699.47
2023-03-02T08:00:14.675Z,92758.81
2023-03-02T08:02:41.697Z,92821.31
2023-03-02T08:05:09.105Z,92898.16
2023-03-02T08:07:35.499Z,92954.13
2023-03-02T08:10:01.926Z,92968.19
2023-03-02T08:12:28.721Z,93046.03
2023-03-02T08:14:55.330Z,93068.50
2023-03-02T08:17:21.757Z,93126.06
2023-03-02T08:19:48.432Z,93168.50
2023-03-02T08:22:14.908Z,93210.63
2023-03-02T08:24:42.016Z,93236.03
2023-03-02T08:27:09.373Z,93258.50
2023-03-02T08:29:35.742Z,93282.94
2023-03-02T08:32:02.457Z,93349.66
2023-03-02T08:34:28.913Z,93363.31
2023-03-02T08:36:55.443Z,93373.16
2023-03-02T08:39:24.870Z,93386.97
2023-03-02T08:41:51.931Z,93390.38
2023-03-02T08:44:18.471Z,93422.19
2023-03-02T08:46:45.068Z,93470.63
2023-03-02T08:49:11.469Z,93524.16
2023-03-02T08:51:37.804Z,93542.84
2023-03-02T08:54:04.327Z,93589.34
2023-03-02T08:56:33.184Z,93649.00
2023-03-02T08:59:01.580Z,93676.69
2023-03-02T09:01:33.042Z,93724.63
2023-03-02T09:04:00.968Z,93748.13
2023-03-02T09:06:28.162Z,93780.88
2023-03-02T09:08:54.723Z,93814.03
2023-03-02T09:11:21.096Z,93923.78
2023-03-02T09:13:47.536Z,93962.09
2023-03-02T09:16:14.176Z,93986.00
2023-03-02T09:18:40.604Z,94029.91
2023-03-02T09:21:06.975Z,94064.84
2023-03-02T09:23:33.518Z,94109.00
2023-03-02T09:25:59.870Z,94148.31
2023-03-02T09:28:26.537Z,94206.19
2023-03-02T09:30:54.352Z,94240.31
2023-03-02T09:33:20.772Z,94241.22
2023-03-02T09:35:47.820Z,94259.09
2023-03-02T09:38:18.419Z,94291.34
2023-03-02T09:40:53.628Z,94353.44
2023-03-02T09:43:25.231Z,94426.13
2023-03-02T09:46:07.136Z,94477.38
2023-03-02T09:49:15.112Z,94493.38
2023-03-02T09:51:59.615Z,94511.00
2023-03-02T09:54:26.172Z,94563.78
2023-03-02T09:56:54.412Z,94630.13
2023-03-02T09:59:24.615Z,94676.56
2023-03-02T10:02:01.810Z,94760.44
2023-03-02T10:04:40.433Z,94921.66
2023-03-02T10:07:14.462Z,95026.84
2023-03-02T10:09:40.906Z,95110.09
2023-03-02T10:12:49.138Z,95178.06
2023-03-02T10:15:40.927Z,95209.78
2023-03-02T10:18:11.809Z,95317.56
2023-03-02T10:20:44.389Z,95365.41
2023-03-02T10:23:29.582Z,95405.75
2023-03-02T10:26:05.683Z,95463.44
2023-03-02T10:28:35.715Z,95485.88
2023-03-02T10:31:05.556Z,95520.72
2023-03-02T10:33:33.586Z,95582.66
2023-03-02T10:36:01.296Z,95649.50
2023-03-02T10:38:28.038Z,95708.66
2023-03-02T10:41:00.067Z,95766.06
2023-03-02T10:43:45.644Z,95803.41
2023-03-02T10:46:12.684Z,95842.13
2023-03-02T10:48:56.392Z,95829.34
2023-03-02T10:51:35.228Z,95837.03
2023-03-02T10:54:11.662Z,95879.63
2023-03-02T10:56:38.526Z,96022.13
2023-03-02T10:59:32.181Z,96104.94
2023-03-02T11:02:02.878Z,96229.63
2023-03-02T11:04:30.289Z,96282.94
2023-03-02T11:07:12.870Z,96346.59
2023-03-02T11:09:39.466Z,96380.09
2023-03-02T11:12:06.053Z,96411.03
2023-03-02T11:14:33.621Z,96394.75
2023-03-02T11:17:01.426Z,96382.72
2023-03-02T11:19:35.194Z,96423.53
2023-03-02T11:22:18.382Z,96466.16
2023-03-02T11:24:47.720Z,96506.75
2023-03-02T11:27:22.665Z,96533.25
2023-03-02T11:29:52.158Z,96550.31
2023-03-02T11:32:51.444Z,96549.00
2023-03-02T11:35:33.744Z,96564.88
2023-03-02T11:38:10.611Z,96607.19
2023-03-02T11:40:45.000Z,96635.22
2023-03-02T11:43:12.829Z,96682.47
2023-03-02T11:45:44.168Z,96693.19
2023-03-02T11:48:23.903Z,96656.94
2023-03-02T11:50:54.715Z,96641.41
2023-03-02T11:53:21.236Z,96680.84
2023-03-02T11:55:48.616Z,96707.25
2023-03-02T11:58:22.408Z,96691.72
2023-03-02T12:00:49.051Z,96691.38
2023-03-02T12:03:15.437Z,96669.59
2023-03-02T12:05:46.822Z,96656.66
2023-03-02T12:08:19.573Z,96634.03
2023-03-02T12:11:02.187Z,96621.19
2023-03-02T12:13:38.787Z,96620.66
2023-03-02T12:16:34.890Z,96622.50
2023-03-02T12:19:39.244Z,96624.25
2023-03-02T12:22:08.975Z,96646.88
2023-03-02T12:24:36.781Z,96655.38
2023-03-02T12:27:15.168Z,96655.53
2023-03-02T12:29:56.177Z,96631.16
2023-03-02T12:32:24.897Z,96645.31
2023-03-02T12:35:11.343Z,96628.59
2023-03-02T12:37:57.417Z,96589.81
2023-03-02T12:40:38.044Z,96569.50
2023-03-02T12:43:25.685Z,96576.78
2023-03-02T12:45:58.360Z,96565.72
2023-03-02T12:48:30.857Z,96562.22
2023-03-02T12:51:01.878Z,96537.75
2023-03-02T12:53:28.460Z,96546.41
2023-03-02T12:55:54.873Z,96535.88
2023-03-02T12:58:23.470Z,96564.72
2023-03-02T13:00:59.395Z,96578.53
2023-03-02T13:03:26.991Z,96575.22
2023-03-02T13:06:04.564Z,96581.25
2023-03-02T13:08:31.068Z,96608.28
2023-03-02T13:10:58.264Z,96611.97
2023-03-02T13:13:39.489Z,96580.22
2023-03-02T13:16:08.337Z,96585.00
2023-03-02T13:18:36.620Z,96574.28
2023-03-02T13:21:03.603Z,96602.00
2023-03-02T13:23:30.845Z,96617.34
2023-03-02T13:25:59.437Z,96647.06
2023-03-02T13:28:36.662Z,96644.09
2023-03-02T13:31:04.376Z,96649.81
2023-03-02T13:33:31.468Z,96678.47
2023-03-02T13:35:57.825Z,96666.34
2023-03-02T13:38:26.549Z,96665.53
2023-03-02T13:40:54.243Z,96686.75
2023-03-02T13:43:30.358Z,96670.16
2023-03-02T13:46:04.242Z,96661.09
2023-03-02T13:48:31.004Z,96643.53
2023-03-02T13:50:59.999Z,96650.09
2023-03-02T13:53:27.428Z,96646.97
2023-03-02T13:55:54.352Z,96626.19
2023-03-02T13:58:21.015Z,96601.06
2023-03-02T14:00:47.459Z,96578.91
2023-03-02T14:03:31.959Z,96568.59
2023-03-02T14:05:59.049Z,96538.88
2023-03-02T14:08:25.681Z,96522.06
2023-03-02T14:10:53.866Z,96513.81
2023-03-02T14:13:25.175Z,96549.31
2023-03-02T14:15:52.325Z,96556.31
2023-03-02T14:18:42.780Z,96517.44
2023-03-02T14:21:14.275Z,96518.19
2023-03-02T14:23:41.486Z,96464.50
2023-03-02T14:26:18.780Z,96405.03
2023-03-02T14:28:47.429Z,96413.69
2023-03-02T14:31:19.273Z,96428.13
2023-03-02T14:33:45.887Z,96435.50
2023-03-02T14:36:14.671Z,96420.00
2023-03-02T14:38:41.021Z,96385.66
2023-03-02T14:41:07.677Z,96377.91
2023-03-02T14:43:34.037Z,96384.41
2023-03-02T14:46:00.731Z,96392.97
2023-03-02T14:48:27.120Z,96377.28
2023-03-02T14:50:53.464Z,96372.91
2023-03-02T14:53:22.796Z,96347.06
2023-03-02T14:55:49.237Z,96343.59
2023-03-02T14:58:18.410Z,96338.44
2023-03-02T15:00:45.083Z,96319.59
2023-03-02T15:03:25.738Z,96295.22
2023-03-02T15:06:01.373Z,96294.88
2023-03-02T15:08:28.466Z,96273.47
2023-03-02T15:10:54.909Z,96237.31
2023-03-02T15:13:21.319Z,96195.56
2023-03-02T15:15:48.688Z,96179.88
2023-03-02T15:18:16.873Z,96180.91
2023-03-02T15:20:43.268Z,96197.22
2023-03-02T15:23:09.641Z,96205.38
2023-03-02T15:25:35.987Z,96208.06
2023-03-02T15:28:02.365Z,96194.22
2023-03-02T15:30:30.474Z,96201.34
2023-03-02T15:32:59.685Z,96197.41
2023-03-02T15:35:29.407Z,96184.38
2023-03-02T15:37:58.410Z,96192.53
2023-03-02T15:40:25.454Z,96177.97
2023-03-02T15:42:52.552Z,96175.16
2023-03-02T15:45:19.136Z,96123.00
2023-03-02T15:47:45.591Z,96085.00
2023-03-02T15:50:12.402Z,96078.19
2023-03-02T15:52:38.959Z,96068.03
2023-03-02T15:55:05.457Z,96050.59
2023-03-02T15:57:36.745Z,96029.19
2023-03-02T16:00:05.203Z,96056.47
2023-03-02T16:02:31.795Z,96009.81
2023-03-02T16:04:58.200Z,95998.22
2023-03-02T16:07:24.643Z,95972.41
2023-03-02T16:09:51.705Z,95990.06
2023-03-02T16:12:20.811Z,95890.66
2023-03-02T16:14:47.196Z,95835.31
2023-03-02T16:17:13.545Z,95799.91
2023-03-02T16:19:40.034Z,95779.97
2023-03-02T16:22:06.456Z,95767.06
2023-03-02T16:24:32.844Z,95756.84
2023-03-02T16:26:59.447Z,95743.25
2023-03-02T16:29:25.832Z,95738.38
2023-03-02T16:31:52.431Z,95736.03
2023-03-02T16:34:18.914Z,95736.91
2023-03-02T16:36:45.419Z,95735.50
2023-03-02T16:39:13.933Z,95662.75
2023-03-02T16:41:41.536Z,95639.97
2023-03-02T16:44:08.024Z,95613.06
2023-03-02T16:46:39.945Z,95557.88
2023-03-02T16:49:06.617Z,95510.06
2023-03-02T16:51:33.177Z,95455.66
2023-03-02T16:53:59.602Z,95414.19
2023-03-02T16:56:26.243Z,95385.22
2023-03-02T16:58:52.632Z,95372.31
2023-03-02T17:01:20.237Z,95351.56
2023-03-02T17:03:47.137Z,95346.28
2023-03-02T17:06:14.250Z,95335.38
2023-03-02T17:08:40.789Z,95281.81
2023-03-02T17:11:07.243Z,95242.25
2023-03-02T17:13:33.636Z,95206.97
2023-03-02T17:16:00.210Z,95150.81
2023-03-02T17:18:27.545Z,95091.16
2023-03-02T17:20:54.580Z,95060.22
2023-03-02T17:23:21.069Z,95025.53
2023-03-02T17:25:47.485Z,94995.97
2023-03-02T17:28:14.949Z,94993.88
2023-03-02T17:30:41.930Z,94966.13
2023-03-02T17:33:08.682Z,94955.22
2023-03-02T17:35:35.239Z,94948.44
2023-03-02T17:38:01.696Z,94973.34
2023-03-02T17:40:28.247Z,94977.34
2023-03-02T17:42:57.343Z,94962.47
2023-03-02T17:45:25.445Z,94941.97
2023-03-02T17:47:52.483Z,94920.28
2023-03-02T17:50:19.148Z,94902.22
2023-03-02T17:52:45.561Z,94891.09
2023-03-02T17:55:11.932Z,94874.25
2023-03-02T17:57:38.349Z,94859.84
2023-03-02T18:00:06.378Z,94829.75
2023-03-02T18:02:33.359Z,94776.06
2023-03-02T18:05:00.158Z,94755.69
2023-03-02T18:07:26.715Z,94729.91
2023-03-02T18:09:53.082Z,94724.34
2023-03-02T18:12:19.471Z,94700.34
2023-03-02T18:14:45.860Z,94688.13
2023-03-02T18:17:12.478Z,94689.47
2023-03-02T18:19:38.871Z,94687.16
2023-03-02T18:22:05.293Z,94682.97
2023-03-02T18:24:31.656Z,94663.44
2023-03-02T18:26:58.024Z,94644.75
2023-03-02T18:29:24.480Z,94645.41
2023-03-02T18:31:52.445Z,94648.00
2023-03-02T18:34:19.917Z,94648.00
2023-03-02T18:36:46.950Z,94655.84
2023-03-02T18:39:13.423Z,94652.59
2023-03-02T18:41:40.221Z,94643.09
2023-03-02T18:44:06.607Z,94647.44
2023-03-02T18:46:33.026Z,94636.06
2023-03-02T18:49:00.893Z,94643.38
2023-03-02T18:51:27.751Z,94657.22
2023-03-02T18:53:54.475Z,94637.13
2023-03-02T18:56:21.054Z,94637.94
2023-03-02T18:58:49.466Z,94650.28
2023-03-02T19:01:15.978Z,94648.53
2023-03-02T19:03:45.664Z,94626.28
2023-03-02T19:06:12.212Z,94645.00
2023-03-02T19:08:38.602Z,94661.00
2023-03-02T19:11:05.184Z,94655.84
2023-03-02T19:13:31.767Z,94656.50
2023-03-02T19:15:58.155Z,94678.59
2023-03-02T19:18:24.794Z,94642.94
2023-03-02T19:20:51.650Z,94637.81
2023-03-02T19:23:18.029Z,94597.66
2023-03-02T19:25:44.671Z,94581.78
2023-03-02T19:28:11.356Z,94562.25
2023-03-02T19:30:37.832Z,94521.56
2023-03-02T19:33:06.495Z,94514.25
2023-03-02T19:35:33.333Z,94512.63
2023-03-02T19:37:59.736Z,94519.69
2023-03-02T19:40:27.735Z,94524.84
2023-03-02T19:42:55.699Z,94527.00
2023-03-02T19:45:24.145Z,94537.16
2023-03-02T19:47:50.593Z,94515.31
2023-03-02T19:50:18.188Z,94429.94
2023-03-02T19:52:44.608Z,94378.16
2023-03-02T19:55:12.454Z,94313.91
2023-03-02T19:57:39.825Z,94266.72
2023-03-02T20:00:08.171Z,94210.88
2023-03-02T20:02:35.967Z,94143.81
2023-03-02T20:05:03.490Z,94097.53
2023-03-02T20:07:29.853Z,94009.63
2023-03-02T20:09:56.212Z,94012.84
2023-03-02T20:12:22.606Z,93892.50
2023-03-02T20:14:49.252Z,93857.72
2023-03-02T20:17:16.443Z,93840.50
2023-03-02T20:19:44.029Z,93813.44
2023-03-02T20:22:10.794Z,93794.47
2023-03-02T20:24:37.675Z,93773.28
2023-03-02T20:27:06.804Z,93794.94
2023-03-02T20:29:36.499Z,93836.53
2023-03-02T20:32:04.030Z,93831.47
2023-03-02T20:34:31.504Z,93835.66
2023-03-02T20:36:58.145Z,93822.84
2023-03-02T20:39:27.033Z,93836.41
2023-03-02T20:41:53.523Z,93862.44
2023-03-02T20:44:20.512Z,93895.53
2023-03-02T20:46:49.250Z,93910.97
2023-03-02T20:49:15.709Z,93924.81
2023-03-02T20:51:43.166Z,93921.28
2023-03-02T20:54:09.605Z,93921.28
2023-03-02T20:56:35.958Z,93944.09
2023-03-02T20:59:02.733Z,93932.81
2023-03-02T21:01:29.781Z,93907.44
2023-03-02T21:03:56.201Z,93909.06
2023-03-02T21:06:22.622Z,93926.22
2023-03-02T21:08:49.171Z,93902.28
2023-03-02T21:11:17.477Z,93884.97
2023-03-02T21:13:47.428Z,93870.16
2023-03-02T21:16:22.498Z,93858.91
2023-03-02T21:18:48.861Z,93857.00
2023-03-02T21:21:15.610Z,93857.28
2023-03-02T21:23:42.245Z,93855.97
2023-03-02T21:26:09.183Z,93842.13
2023-03-02T21:28:36.413Z,93829.94
2023-03-02T21:31:02.933Z,93817.19
2023-03-02T21:33:29.435Z,93821.53
2023-03-02T21:35:56.276Z,93832.44
2023-03-02T21:38:22.715Z,93838.19
2023-03-02T21:40:49.076Z,93813.31
2023-03-02T21:43:15.540Z,93792.28
2023-03-02T21:45:41.976Z,93765.91
2023-03-02T21:48:08.420Z,93773.66
2023-03-02T21:50:36.289Z,93790.63
2023-03-02T21:53:02.709Z,93808.63
2023-03-02T21:55:29.310Z,93777.47
2023-03-02T21:57:55.848Z,93768.16
2023-03-02T22:00:25.559Z,93766.53
2023-03-02T22:02:51.931Z,93776.63
2023-03-02T22:05:18.918Z,93763.91
2023-03-02T22:07:45.459Z,93727.25
2023-03-02T22:10:39.561Z,93680.09
2023-03-02T22:13:18.191Z,93676.38
2023-03-02T22:15:45.717Z,93668.63
2023-03-02T22:18:17.290Z,93640.16
2023-03-02T22:20:45.748Z,93594.31
2023-03-02T22:23:21.187Z,93557.19
2023-03-02T22:25:49.269Z,93547.50
2023-03-02T22:28:25.882Z,93515.50
2023-03-02T22:30:52.817Z,93465.81
2023-03-02T22:33:23.422Z,93483.03
2023-03-02T22:35:50.818Z,93435.44
2023-03-02T22:38:25.080Z,93419.00
2023-03-02T22:40:52.238Z,93383.63
2023-03-02T22:43:25.662Z,93357.72
2023-03-02T22:45:53.215Z,93340.34
2023-03-02T22:48:20.982Z,93320.88
2023-03-02T22:50:48.488Z,93300.28
2023-03-02T22:53:29.518Z,93284.84
2023-03-02T22:56:00.033Z,93283.59
2023-03-02T22:58:49.089Z,93259.09
2023-03-02T23:01:24.159Z,93265.72
2023-03-02T23:03:52.966Z,93255.28
2023-03-02T23:06:22.459Z,93233.38
2023-03-02T23:08:48.975Z,93215.69
2023-03-02T23:11:17.710Z,93224.03
2023-03-02T23:13:44.561Z,93256.88
2023-03-02T23:16:22.270Z,93254.00
2023-03-02T23:18:49.156Z,93238.72
2023-03-02T23:21:28.481Z,93235.00
2023-03-02T23:23:55.068Z,93238.25
2023-03-02T23:26:21.752Z,93222.13
2023-03-02T23:28:49.215Z,93219.88
2023-03-02T23:31:15.694Z,93195.59
2023-03-02T23:33:42.250Z,93199.75
2023-03-02T23:36:08.880Z,93189.00
2023-03-02T23:38:35.402Z,93173.22
2023-03-02T23:41:01.755Z,93160.97
2023-03-02T23:43:28.173Z,93190.94
2023-03-02T23:45:54.598Z,93180.66
2023-03-02T23:48:20.962Z,93186.72
2023-03-02T23:50:47.579Z,93192.19
2023-03-02T23:53:13.973Z,93198.97
2023-03-02T23:55:41.989Z,93199.75
2023-03-02T23:58:08.341Z,93203.16
